Huvudsida
METAR-TAF:

METAR-TAF

Flygplatser :

Birjand International Airport

Birjand, Iran

latitud: 32-52N, longitud: 059-12E, höjd: 1491 m

Aktuellt väderrapport

Denna rapport gjordes för 1 timme och 5 minuter sedan, klockan 06:00 UTC
Vind 4 kt från nordost
Temperatur 17°C
Fuktighet 23%
Tryck 1023 hPa
Sikt 10 km eller mer
Inga moln under 1 500 m eller inga cumulonimbus

METAR: OIMB 220600Z 05004KT CAVOK 17/M04 Q1023

Tid: 10:35 (07:05 UTC)


TAF: saknas

Aktuella väderrapporter och prognoser från 4000 flygplatser (METAR- och TAF-rapporter).

De tillgängliga stationerna syns som gula och röda prickar på kartan.

För musen över prickarna för att se namnen på stationerna.

Klicka sedan för att få väderrapporter och prognoser.

För att ändra kartan: Klicka på de gröna knapparna med ett svart kors på för att zooma in; den gröna knappen med ett streck på för att zooma ut; eller på de gröna pilarna för angränsande kartor.


METAR-TAF: